Terminal Aerodrome Forecast
Issued by NWS

Home | Current Version | Previous Version | Text Only | Print | Product List | Glossary On
Versions: 1 2 3 4 5 6 7 8 9 10 11 12 13 14 15 16 17 18 19 20 21 22 23 24 25
000
FTUS45 KGJT 270542
TAFVEL
TAF
KVEL 270542Z 2706/2806 26005KT P6SM -RA VCSH SCT045 OVC060
     FM270700 15004KT P6SM VCSH BKN050
     FM271200 17005KT P6SM SCT060
     FM271800 25016KT P6SM VCSH SCT110
     FM272100 28016KT P6SM VCSH BKN120
     FM280000 30011KT P6SM SCT110=

USA.gov is the U.S. government's official web portal to all federal, state and local government web resources and services.